sensor_id;sensor_type;location;lat;lon;timestamp;pressure;altitude;pressure_sealevel;temperature
68127;BMP180;54931;52.098;21.006;2023-11-19T00:00:10;100859.40;;;-0.80
68127;BMP180;54931;52.098;21.006;2023-11-19T00:03:02;100859.20;;;-0.80
68127;BMP180;54931;52.098;21.006;2023-11-19T00:05:30;100856.00;;;-0.80
68127;BMP180;54931;52.098;21.006;2023-11-19T00:07:57;100848.20;;;-0.70
68127;BMP180;54931;52.098;21.006;2023-11-19T00:10:26;100847.40;;;-0.70
68127;BMP180;54931;52.098;21.006;2023-11-19T00:12:53;100849.40;;;-0.70
68127;BMP180;54931;52.098;21.006;2023-11-19T00:15:21;100853.60;;;-0.70
68127;BMP180;54931;52.098;21.006;2023-11-19T00:17:49;100857.20;;;-0.72
68127;BMP180;54931;52.098;21.006;2023-11-19T00:20:20;100851.80;;;-0.72
68127;BMP180;54931;52.098;21.006;2023-11-19T00:22:50;100849.60;;;-0.78
68127;BMP180;54931;52.098;21.006;2023-11-19T00:25:20;100851.20;;;-0.80
68127;BMP180;54931;52.098;21.006;2023-11-19T00:27:49;100848.20;;;-0.72
68127;BMP180;54931;52.098;21.006;2023-11-19T00:30:18;100839.40;;;-0.70
68127;BMP180;54931;52.098;21.006;2023-11-19T00:32:46;100835.20;;;-0.70
68127;BMP180;54931;52.098;21.006;2023-11-19T00:35:13;100839.00;;;-0.70
68127;BMP180;54931;52.098;21.006;2023-11-19T00:37:43;100839.60;;;-0.70
68127;BMP180;54931;52.098;21.006;2023-11-19T00:40:12;100833.20;;;-0.70
68127;BMP180;54931;52.098;21.006;2023-11-19T00:42:40;100825.00;;;-0.70
68127;BMP180;54931;52.098;21.006;2023-11-19T00:45:08;100816.40;;;-0.70
68127;BMP180;54931;52.098;21.006;2023-11-19T00:47:37;100815.40;;;-0.70
68127;BMP180;54931;52.098;21.006;2023-11-19T00:50:07;100819.80;;;-0.70
68127;BMP180;54931;52.098;21.006;2023-11-19T00:52:38;100819.40;;;-0.70
68127;BMP180;54931;52.098;21.006;2023-11-19T00:55:07;100813.00;;;-0.70
68127;BMP180;54931;52.098;21.006;2023-11-19T00:57:35;100807.40;;;-0.70
68127;BMP180;54931;52.098;21.006;2023-11-19T01:00:05;100808.00;;;-0.70
68127;BMP180;54931;52.098;21.006;2023-11-19T01:02:46;100799.80;;;-0.70
68127;BMP180;54931;52.098;21.006;2023-11-19T01:05:13;100792.20;;;-0.70
68127;BMP180;54931;52.098;21.006;2023-11-19T01:07:41;100782.00;;;-0.70
68127;BMP180;54931;52.098;21.006;2023-11-19T01:10:09;100777.20;;;-0.68
68127;BMP180;54931;52.098;21.006;2023-11-19T01:12:38;100772.80;;;-0.70
68127;BMP180;54931;52.098;21.006;2023-11-19T01:15:07;100766.20;;;-0.70
68127;BMP180;54931;52.098;21.006;2023-11-19T01:17:37;100763.00;;;-0.70
68127;BMP180;54931;52.098;21.006;2023-11-19T01:20:06;100762.00;;;-0.70
68127;BMP180;54931;52.098;21.006;2023-11-19T01:22:34;100759.40;;;-0.70
68127;BMP180;54931;52.098;21.006;2023-11-19T01:25:03;100751.40;;;-0.70
68127;BMP180;54931;52.098;21.006;2023-11-19T01:27:33;100747.20;;;-0.70
68127;BMP180;54931;52.098;21.006;2023-11-19T01:30:04;100747.00;;;-0.70
68127;BMP180;54931;52.098;21.006;2023-11-19T01:32:33;100748.60;;;-0.70
68127;BMP180;54931;52.098;21.006;2023-11-19T01:35:00;100752.00;;;-0.70
68127;BMP180;54931;52.098;21.006;2023-11-19T01:37:28;100759.80;;;-0.70
68127;BMP180;54931;52.098;21.006;2023-11-19T01:39:56;100758.20;;;-0.70
68127;BMP180;54931;52.098;21.006;2023-11-19T01:42:25;100756.80;;;-0.70
68127;BMP180;54931;52.098;21.006;2023-11-19T01:45:00;100749.00;;;-0.70
68127;BMP180;54931;52.098;21.006;2023-11-19T01:47:30;100748.00;;;-0.74
68127;BMP180;54931;52.098;21.006;2023-11-19T01:49:59;100742.60;;;-0.70
68127;BMP180;54931;52.098;21.006;2023-11-19T01:52:27;100737.20;;;-0.70
68127;BMP180;54931;52.098;21.006;2023-11-19T01:54:55;100734.60;;;-0.70
68127;BMP180;54931;52.098;21.006;2023-11-19T01:57:24;100731.60;;;-0.70
68127;BMP180;54931;52.098;21.006;2023-11-19T01:59:53;100728.80;;;-0.70
68127;BMP180;54931;52.098;21.006;2023-11-19T02:02:21;100728.60;;;-0.70
68127;BMP180;54931;52.098;21.006;2023-11-19T02:04:52;100723.80;;;-0.70
68127;BMP180;54931;52.098;21.006;2023-11-19T02:07:20;100723.00;;;-0.74
68127;BMP180;54931;52.098;21.006;2023-11-19T02:09:47;100714.60;;;-0.80
68127;BMP180;54931;52.098;21.006;2023-11-19T02:12:15;100713.40;;;-0.80
68127;BMP180;54931;52.098;21.006;2023-11-19T02:14:43;100712.60;;;-0.80
68127;BMP180;54931;52.098;21.006;2023-11-19T02:17:31;100711.20;;;-0.80
68127;BMP180;54931;52.098;21.006;2023-11-19T02:19:59;100700.60;;;-0.80
68127;BMP180;54931;52.098;21.006;2023-11-19T02:22:26;100692.00;;;-0.80
68127;BMP180;54931;52.098;21.006;2023-11-19T02:25:03;100691.00;;;-0.80
68127;BMP180;54931;52.098;21.006;2023-11-19T02:27:53;100690.20;;;-0.80
68127;BMP180;54931;52.098;21.006;2023-11-19T02:30:25;100691.20;;;-0.80
68127;BMP180;54931;52.098;21.006;2023-11-19T02:32:57;100689.80;;;-0.80
68127;BMP180;54931;52.098;21.006;2023-11-19T02:35:25;100691.80;;;-0.72
68127;BMP180;54931;52.098;21.006;2023-11-19T02:37:59;100682.80;;;-0.70
68127;BMP180;54931;52.098;21.006;2023-11-19T02:40:28;100672.80;;;-0.70
68127;BMP180;54931;52.098;21.006;2023-11-19T02:42:56;100668.00;;;-0.70
68127;BMP180;54931;52.098;21.006;2023-11-19T02:45:26;100674.00;;;-0.72
68127;BMP180;54931;52.098;21.006;2023-11-19T02:47:53;100674.40;;;-0.80
68127;BMP180;54931;52.098;21.006;2023-11-19T02:50:22;100670.00;;;-0.74
68127;BMP180;54931;52.098;21.006;2023-11-19T02:52:55;100668.00;;;-0.70
68127;BMP180;54931;52.098;21.006;2023-11-19T02:55:25;100658.20;;;-0.70
68127;BMP180;54931;52.098;21.006;2023-11-19T02:57:55;100655.20;;;-0.70
68127;BMP180;54931;52.098;21.006;2023-11-19T03:00:23;100651.00;;;-0.70
68127;BMP180;54931;52.098;21.006;2023-11-19T03:02:52;100645.60;;;-0.70
68127;BMP180;54931;52.098;21.006;2023-11-19T03:05:37;100635.60;;;-0.70
68127;BMP180;54931;52.098;21.006;2023-11-19T03:08:04;100631.20;;;-0.78
68127;BMP180;54931;52.098;21.006;2023-11-19T03:10:32;100627.60;;;-0.80
68127;BMP180;54931;52.098;21.006;2023-11-19T03:13:02;100626.80;;;-0.80
68127;BMP180;54931;52.098;21.006;2023-11-19T03:15:30;100623.60;;;-0.80
68127;BMP180;54931;52.098;21.006;2023-11-19T03:17:58;100617.60;;;-0.80
68127;BMP180;54931;52.098;21.006;2023-11-19T03:20:26;100612.80;;;-0.80
68127;BMP180;54931;52.098;21.006;2023-11-19T03:22:55;100609.60;;;-0.80
68127;BMP180;54931;52.098;21.006;2023-11-19T03:25:22;100615.20;;;-0.80
68127;BMP180;54931;52.098;21.006;2023-11-19T03:27:49;100610.40;;;-0.80
68127;BMP180;54931;52.098;21.006;2023-11-19T03:30:16;100604.20;;;-0.80
68127;BMP180;54931;52.098;21.006;2023-11-19T03:32:45;100598.00;;;-0.80
68127;BMP180;54931;52.098;21.006;2023-11-19T03:35:12;100596.80;;;-0.80
68127;BMP180;54931;52.098;21.006;2023-11-19T03:37:39;100600.80;;;-0.80
68127;BMP180;54931;52.098;21.006;2023-11-19T03:40:08;100598.60;;;-0.80
68127;BMP180;54931;52.098;21.006;2023-11-19T03:42:35;100595.60;;;-0.72
68127;BMP180;54931;52.098;21.006;2023-11-19T03:45:04;100587.20;;;-0.70
68127;BMP180;54931;52.098;21.006;2023-11-19T03:47:31;100574.80;;;-0.70
68127;BMP180;54931;52.098;21.006;2023-11-19T03:49:59;100575.60;;;-0.70
68127;BMP180;54931;52.098;21.006;2023-11-19T03:52:26;100571.60;;;-0.70
68127;BMP180;54931;52.098;21.006;2023-11-19T03:54:57;100568.80;;;-0.72
68127;BMP180;54931;52.098;21.006;2023-11-19T03:57:24;100570.40;;;-0.70
68127;BMP180;54931;52.098;21.006;2023-11-19T03:59:52;100565.00;;;-0.70
68127;BMP180;54931;52.098;21.006;2023-11-19T04:02:19;100557.60;;;-0.74
68127;BMP180;54931;52.098;21.006;2023-11-19T04:04:47;100555.20;;;-0.78
68127;BMP180;54931;52.098;21.006;2023-11-19T04:07:15;100558.80;;;-0.80
68127;BMP180;54931;52.098;21.006;2023-11-19T04:09:43;100556.40;;;-0.80
68127;BMP180;54931;52.098;21.006;2023-11-19T04:12:10;100548.60;;;-0.80
68127;BMP180;54931;52.098;21.006;2023-11-19T04:14:37;100544.20;;;-0.80
68127;BMP180;54931;52.098;21.006;2023-11-19T04:17:05;100541.00;;;-0.80
68127;BMP180;54931;52.098;21.006;2023-11-19T04:19:33;100535.20;;;-0.80
68127;BMP180;54931;52.098;21.006;2023-11-19T04:22:00;100528.20;;;-0.80
68127;BMP180;54931;52.098;21.006;2023-11-19T04:24:27;100522.60;;;-0.80
68127;BMP180;54931;52.098;21.006;2023-11-19T04:26:55;100522.60;;;-0.80
68127;BMP180;54931;52.098;21.006;2023-11-19T04:29:22;100517.20;;;-0.80
68127;BMP180;54931;52.098;21.006;2023-11-19T04:31:50;100511.00;;;-0.80
68127;BMP180;54931;52.098;21.006;2023-11-19T04:34:17;100505.00;;;-0.86
68127;BMP180;54931;52.098;21.006;2023-11-19T04:36:45;100499.00;;;-0.86
68127;BMP180;54931;52.098;21.006;2023-11-19T04:39:13;100502.00;;;-0.82
68127;BMP180;54931;52.098;21.006;2023-11-19T04:41:50;100501.20;;;-0.80
68127;BMP180;54931;52.098;21.006;2023-11-19T04:44:21;100498.20;;;-0.80
68127;BMP180;54931;52.098;21.006;2023-11-19T04:46:49;100493.40;;;-0.80
68127;BMP180;54931;52.098;21.006;2023-11-19T04:49:16;100487.20;;;-0.80
68127;BMP180;54931;52.098;21.006;2023-11-19T04:51:46;100486.80;;;-0.80
68127;BMP180;54931;52.098;21.006;2023-11-19T04:54:18;100488.00;;;-0.80
68127;BMP180;54931;52.098;21.006;2023-11-19T04:56:46;100487.20;;;-0.80
68127;BMP180;54931;52.098;21.006;2023-11-19T04:59:14;100479.60;;;-0.80
68127;BMP180;54931;52.098;21.006;2023-11-19T05:01:47;100470.40;;;-0.80
68127;BMP180;54931;52.098;21.006;2023-11-19T05:04:15;100466.80;;;-0.80
68127;BMP180;54931;52.098;21.006;2023-11-19T05:06:42;100464.20;;;-0.80
68127;BMP180;54931;52.098;21.006;2023-11-19T05:09:10;100460.00;;;-0.90
68127;BMP180;54931;52.098;21.006;2023-11-19T05:11:40;100454.00;;;-0.90
68127;BMP180;54931;52.098;21.006;2023-11-19T05:14:08;100453.80;;;-0.90
68127;BMP180;54931;52.098;21.006;2023-11-19T05:16:40;100447.00;;;-0.90
68127;BMP180;54931;52.098;21.006;2023-11-19T05:19:08;100450.80;;;-0.90
68127;BMP180;54931;52.098;21.006;2023-11-19T05:21:36;100450.20;;;-0.90
68127;BMP180;54931;52.098;21.006;2023-11-19T05:24:04;100444.20;;;-0.90
68127;BMP180;54931;52.098;21.006;2023-11-19T05:26:32;100442.40;;;-0.86
68127;BMP180;54931;52.098;21.006;2023-11-19T05:28:59;100440.80;;;-0.80
68127;BMP180;54931;52.098;21.006;2023-11-19T05:31:27;100441.60;;;-0.80
68127;BMP180;54931;52.098;21.006;2023-11-19T05:33:54;100440.20;;;-0.80
68127;BMP180;54931;52.098;21.006;2023-11-19T05:36:21;100431.80;;;-0.80
68127;BMP180;54931;52.098;21.006;2023-11-19T05:38:49;100434.80;;;-0.80
68127;BMP180;54931;52.098;21.006;2023-11-19T05:41:16;100431.00;;;-0.80
68127;BMP180;54931;52.098;21.006;2023-11-19T05:43:44;100431.40;;;-0.80
68127;BMP180;54931;52.098;21.006;2023-11-19T05:46:12;100433.80;;;-0.80
68127;BMP180;54931;52.098;21.006;2023-11-19T05:48:40;100433.80;;;-0.80
68127;BMP180;54931;52.098;21.006;2023-11-19T05:51:08;100434.80;;;-0.80
68127;BMP180;54931;52.098;21.006;2023-11-19T05:53:35;100431.00;;;-0.80
68127;BMP180;54931;52.098;21.006;2023-11-19T05:56:03;100425.80;;;-0.80
68127;BMP180;54931;52.098;21.006;2023-11-19T05:58:31;100427.80;;;-0.80
68127;BMP180;54931;52.098;21.006;2023-11-19T06:01:00;100427.60;;;-0.80
68127;BMP180;54931;52.098;21.006;2023-11-19T06:03:31;100428.60;;;-0.80
68127;BMP180;54931;52.098;21.006;2023-11-19T06:05:59;100428.20;;;-0.80
68127;BMP180;54931;52.098;21.006;2023-11-19T06:08:26;100423.20;;;-0.80
68127;BMP180;54931;52.098;21.006;2023-11-19T06:10:54;100431.00;;;-0.80
68127;BMP180;54931;52.098;21.006;2023-11-19T06:13:21;100427.40;;;-0.80
68127;BMP180;54931;52.098;21.006;2023-11-19T06:15:49;100429.80;;;-0.80
68127;BMP180;54931;52.098;21.006;2023-11-19T06:18:18;100420.20;;;-0.80
68127;BMP180;54931;52.098;21.006;2023-11-19T06:20:47;100420.60;;;-0.80
68127;BMP180;54931;52.098;21.006;2023-11-19T06:23:15;100424.00;;;-0.80
68127;BMP180;54931;52.098;21.006;2023-11-19T06:25:43;100424.00;;;-0.80
68127;BMP180;54931;52.098;21.006;2023-11-19T06:28:10;100420.80;;;-0.80
68127;BMP180;54931;52.098;21.006;2023-11-19T06:30:38;100414.60;;;-0.80
68127;BMP180;54931;52.098;21.006;2023-11-19T06:33:06;100411.60;;;-0.82
68127;BMP180;54931;52.098;21.006;2023-11-19T06:35:34;100397.80;;;-0.90
68127;BMP180;54931;52.098;21.006;2023-11-19T06:38:05;100395.00;;;-0.90
68127;BMP180;54931;52.098;21.006;2023-11-19T06:40:33;100387.40;;;-1.00
68127;BMP180;54931;52.098;21.006;2023-11-19T06:43:03;100388.00;;;-1.00
68127;BMP180;54931;52.098;21.006;2023-11-19T06:45:32;100389.40;;;-1.00
68127;BMP180;54931;52.098;21.006;2023-11-19T06:48:03;100377.20;;;-1.00
68127;BMP180;54931;52.098;21.006;2023-11-19T06:50:32;100380.20;;;-0.96
68127;BMP180;54931;52.098;21.006;2023-11-19T06:53:00;100372.40;;;-0.92
68127;BMP180;54931;52.098;21.006;2023-11-19T06:55:27;100366.60;;;-0.90
68127;BMP180;54931;52.098;21.006;2023-11-19T06:57:55;100367.20;;;-0.90
68127;BMP180;54931;52.098;21.006;2023-11-19T07:00:23;100361.80;;;-0.90
68127;BMP180;54931;52.098;21.006;2023-11-19T07:02:50;100360.00;;;-0.90
68127;BMP180;54931;52.098;21.006;2023-11-19T07:05:18;100358.60;;;-0.90
68127;BMP180;54931;52.098;21.006;2023-11-19T07:07:46;100355.80;;;-0.88
68127;BMP180;54931;52.098;21.006;2023-11-19T07:10:14;100343.40;;;-0.80
68127;BMP180;54931;52.098;21.006;2023-11-19T07:12:42;100344.20;;;-0.80
68127;BMP180;54931;52.098;21.006;2023-11-19T07:15:12;100342.00;;;-0.70
68127;BMP180;54931;52.098;21.006;2023-11-19T07:17:39;100334.40;;;-0.70
68127;BMP180;54931;52.098;21.006;2023-11-19T07:20:08;100325.60;;;-0.70
68127;BMP180;54931;52.098;21.006;2023-11-19T07:22:37;100319.40;;;-0.60
68127;BMP180;54931;52.098;21.006;2023-11-19T07:25:06;100325.60;;;-0.60
68127;BMP180;54931;52.098;21.006;2023-11-19T07:27:34;100323.00;;;-0.54
68127;BMP180;54931;52.098;21.006;2023-11-19T07:30:01;100320.80;;;-0.60
68127;BMP180;54931;52.098;21.006;2023-11-19T07:32:29;100324.60;;;-0.50
68127;BMP180;54931;52.098;21.006;2023-11-19T07:34:57;100323.40;;;-0.50
68127;BMP180;54931;52.098;21.006;2023-11-19T07:37:25;100334.00;;;-0.50
68127;BMP180;54931;52.098;21.006;2023-11-19T07:39:53;100325.20;;;-0.50
68127;BMP180;54931;52.098;21.006;2023-11-19T07:42:21;100321.60;;;-0.46
68127;BMP180;54931;52.098;21.006;2023-11-19T07:44:48;100315.20;;;-0.40
68127;BMP180;54931;52.098;21.006;2023-11-19T07:47:16;100310.00;;;-0.40
68127;BMP180;54931;52.098;21.006;2023-11-19T07:49:44;100305.00;;;-0.40
68127;BMP180;54931;52.098;21.006;2023-11-19T07:52:11;100304.20;;;-0.38
68127;BMP180;54931;52.098;21.006;2023-11-19T07:54:39;100302.40;;;-0.30
68127;BMP180;54931;52.098;21.006;2023-11-19T07:57:07;100296.20;;;-0.30
68127;BMP180;54931;52.098;21.006;2023-11-19T07:59:34;100296.40;;;-0.20
68127;BMP180;54931;52.098;21.006;2023-11-19T08:02:03;100288.20;;;-0.20
68127;BMP180;54931;52.098;21.006;2023-11-19T08:04:32;100283.60;;;-0.10
68127;BMP180;54931;52.098;21.006;2023-11-19T08:07:00;100281.80;;;-0.10
68127;BMP180;54931;52.098;21.006;2023-11-19T08:09:28;100278.00;;;-0.06
68127;BMP180;54931;52.098;21.006;2023-11-19T08:11:56;100279.40;;;0.00
68127;BMP180;54931;52.098;21.006;2023-11-19T08:14:24;100281.80;;;0.10
68127;BMP180;54931;52.098;21.006;2023-11-19T08:16:52;100277.20;;;0.14
68127;BMP180;54931;52.098;21.006;2023-11-19T08:19:20;100270.20;;;0.10
68127;BMP180;54931;52.098;21.006;2023-11-19T08:21:47;100266.20;;;0.20
68127;BMP180;54931;52.098;21.006;2023-11-19T08:24:15;100259.40;;;0.20
68127;BMP180;54931;52.098;21.006;2023-11-19T08:26:43;100250.60;;;0.20
68127;BMP180;54931;52.098;21.006;2023-11-19T08:29:10;100251.60;;;0.20
68127;BMP180;54931;52.098;21.006;2023-11-19T08:31:38;100246.00;;;0.24
68127;BMP180;54931;52.098;21.006;2023-11-19T08:34:06;100244.20;;;0.30
68127;BMP180;54931;52.098;21.006;2023-11-19T08:36:37;100240.00;;;0.30
68127;BMP180;54931;52.098;21.006;2023-11-19T08:39:04;100237.60;;;0.34
68127;BMP180;54931;52.098;21.006;2023-11-19T08:41:31;100235.60;;;0.40
68127;BMP180;54931;52.098;21.006;2023-11-19T08:43:59;100231.60;;;0.50
68127;BMP180;54931;52.098;21.006;2023-11-19T08:46:27;100228.80;;;0.60
68127;BMP180;54931;52.098;21.006;2023-11-19T08:48:54;100231.60;;;0.60
68127;BMP180;54931;52.098;21.006;2023-11-19T08:51:25;100233.40;;;0.52
68127;BMP180;54931;52.098;21.006;2023-11-19T08:53:52;100230.20;;;0.50
68127;BMP180;54931;52.098;21.006;2023-11-19T08:56:20;100218.20;;;0.38
68127;BMP180;54931;52.098;21.006;2023-11-19T08:58:48;100219.60;;;0.40
68127;BMP180;54931;52.098;21.006;2023-11-19T09:01:16;100220.60;;;0.40
68127;BMP180;54931;52.098;21.006;2023-11-19T09:03:44;100220.60;;;0.32
68127;BMP180;54931;52.098;21.006;2023-11-19T09:06:12;100219.00;;;0.30
68127;BMP180;54931;52.098;21.006;2023-11-19T09:08:39;100209.60;;;0.20
68127;BMP180;54931;52.098;21.006;2023-11-19T09:11:08;100200.80;;;0.28
68127;BMP180;54931;52.098;21.006;2023-11-19T09:13:36;100192.40;;;0.28
68127;BMP180;54931;52.098;21.006;2023-11-19T09:16:05;100191.80;;;0.30
68127;BMP180;54931;52.098;21.006;2023-11-19T09:18:33;100186.40;;;0.30
68127;BMP180;54931;52.098;21.006;2023-11-19T09:21:00;100183.40;;;0.30
68127;BMP180;54931;52.098;21.006;2023-11-19T09:23:29;100176.20;;;0.22
68127;BMP180;54931;52.098;21.006;2023-11-19T09:26:00;100171.40;;;0.20
68127;BMP180;54931;52.098;21.006;2023-11-19T09:28:28;100167.00;;;0.18
68127;BMP180;54931;52.098;21.006;2023-11-19T09:30:56;100165.80;;;0.12
68127;BMP180;54931;52.098;21.006;2023-11-19T09:33:24;100164.60;;;0.20
68127;BMP180;54931;52.098;21.006;2023-11-19T09:35:52;100157.60;;;0.20
68127;BMP180;54931;52.098;21.006;2023-11-19T09:38:20;100151.00;;;0.28
68127;BMP180;54931;52.098;21.006;2023-11-19T09:40:49;100148.80;;;0.30
68127;BMP180;54931;52.098;21.006;2023-11-19T09:43:18;100146.60;;;0.40
68127;BMP180;54931;52.098;21.006;2023-11-19T09:45:51;100142.40;;;0.30
68127;BMP180;54931;52.098;21.006;2023-11-19T09:48:19;100137.60;;;0.30
68127;BMP180;54931;52.098;21.006;2023-11-19T09:50:48;100134.80;;;0.34
68127;BMP180;54931;52.098;21.006;2023-11-19T09:53:17;100131.40;;;0.38
68127;BMP180;54931;52.098;21.006;2023-11-19T09:55:46;100129.60;;;0.30
68127;BMP180;54931;52.098;21.006;2023-11-19T09:58:15;100127.60;;;0.38
68127;BMP180;54931;52.098;21.006;2023-11-19T10:00:45;100122.60;;;0.40
68127;BMP180;54931;52.098;21.006;2023-11-19T10:03:14;100118.80;;;0.40
68127;BMP180;54931;52.098;21.006;2023-11-19T10:05:42;100115.20;;;0.40
68127;BMP180;54931;52.098;21.006;2023-11-19T10:08:11;100110.60;;;0.40
68127;BMP180;54931;52.098;21.006;2023-11-19T10:10:40;100110.60;;;0.40
68127;BMP180;54931;52.098;21.006;2023-11-19T10:13:10;100111.20;;;0.40
68127;BMP180;54931;52.098;21.006;2023-11-19T10:15:40;100112.00;;;0.40
68127;BMP180;54931;52.098;21.006;2023-11-19T10:18:10;100107.00;;;0.40
68127;BMP180;54931;52.098;21.006;2023-11-19T10:20:42;100105.60;;;0.40
68127;BMP180;54931;52.098;21.006;2023-11-19T10:23:11;100093.20;;;0.40
68127;BMP180;54931;52.098;21.006;2023-11-19T10:25:39;100084.40;;;0.40
68127;BMP180;54931;52.098;21.006;2023-11-19T10:28:08;100081.20;;;0.30
68127;BMP180;54931;52.098;21.006;2023-11-19T10:30:36;100079.60;;;0.30
68127;BMP180;54931;52.098;21.006;2023-11-19T10:33:12;100078.20;;;0.30
68127;BMP180;54931;52.098;21.006;2023-11-19T10:35:53;100074.20;;;0.30
68127;BMP180;54931;52.098;21.006;2023-11-19T10:38:22;100072.20;;;0.20
68127;BMP180;54931;52.098;21.006;2023-11-19T10:40:51;100061.00;;;0.20
68127;BMP180;54931;52.098;21.006;2023-11-19T10:43:20;100059.60;;;0.18
68127;BMP180;54931;52.098;21.006;2023-11-19T10:45:50;100051.40;;;0.16
68127;BMP180;54931;52.098;21.006;2023-11-19T10:48:19;100049.20;;;0.18
68127;BMP180;54931;52.098;21.006;2023-11-19T10:50:54;100049.40;;;0.20
68127;BMP180;54931;52.098;21.006;2023-11-19T10:53:25;100046.00;;;0.10
68127;BMP180;54931;52.098;21.006;2023-11-19T10:55:56;100039.40;;;0.12
68127;BMP180;54931;52.098;21.006;2023-11-19T10:58:28;100037.60;;;0.20
68127;BMP180;54931;52.098;21.006;2023-11-19T11:01:01;100031.40;;;0.20
68127;BMP180;54931;52.098;21.006;2023-11-19T11:03:39;100021.20;;;0.20
68127;BMP180;54931;52.098;21.006;2023-11-19T11:06:09;100015.20;;;0.30
68127;BMP180;54931;52.098;21.006;2023-11-19T11:08:38;100012.20;;;0.28
68127;BMP180;54931;52.098;21.006;2023-11-19T11:11:08;100007.80;;;0.30
68127;BMP180;54931;52.098;21.006;2023-11-19T11:13:42;99993.60;;;0.20
68127;BMP180;54931;52.098;21.006;2023-11-19T11:16:10;99987.20;;;0.18
68127;BMP180;54931;52.098;21.006;2023-11-19T11:18:38;99992.80;;;0.20
68127;BMP180;54931;52.098;21.006;2023-11-19T11:21:15;99983.80;;;0.20
68127;BMP180;54931;52.098;21.006;2023-11-19T11:24:06;99972.60;;;0.20
68127;BMP180;54931;52.098;21.006;2023-11-19T11:30:14;99956.80;;;0.20
68127;BMP180;54931;52.098;21.006;2023-11-19T11:33:10;99957.20;;;0.20
68127;BMP180;54931;52.098;21.006;2023-11-19T11:36:17;99948.80;;;0.20
68127;BMP180;54931;52.098;21.006;2023-11-19T11:38:49;99946.40;;;0.22
68127;BMP180;54931;52.098;21.006;2023-11-19T11:41:22;99940.60;;;0.30
68127;BMP180;54931;52.098;21.006;2023-11-19T11:43:52;99933.80;;;0.34
68127;BMP180;54931;52.098;21.006;2023-11-19T11:49:05;99920.60;;;0.30
68127;BMP180;54931;52.098;21.006;2023-11-19T11:54:26;99911.00;;;0.40
68127;BMP180;54931;52.098;21.006;2023-11-19T11:57:21;99908.40;;;0.40
68127;BMP180;54931;52.098;21.006;2023-11-19T11:59:50;99898.60;;;0.40
68127;BMP180;54931;52.098;21.006;2023-11-19T12:02:22;99894.60;;;0.40
68127;BMP180;54931;52.098;21.006;2023-11-19T12:04:52;99886.40;;;0.40
68127;BMP180;54931;52.098;21.006;2023-11-19T12:07:24;99881.40;;;0.40
68127;BMP180;54931;52.098;21.006;2023-11-19T12:10:12;99877.80;;;0.40
68127;BMP180;54931;52.098;21.006;2023-11-19T12:12:40;99876.20;;;0.40
68127;BMP180;54931;52.098;21.006;2023-11-19T12:15:09;99877.40;;;0.40
68127;BMP180;54931;52.098;21.006;2023-11-19T12:17:42;99873.60;;;0.40
68127;BMP180;54931;52.098;21.006;2023-11-19T12:20:13;99864.20;;;0.40
68127;BMP180;54931;52.098;21.006;2023-11-19T12:22:43;99854.60;;;0.40
68127;BMP180;54931;52.098;21.006;2023-11-19T12:25:12;99853.00;;;0.40
68127;BMP180;54931;52.098;21.006;2023-11-19T12:27:46;99845.40;;;0.38
68127;BMP180;54931;52.098;21.006;2023-11-19T12:30:32;99845.40;;;0.30
68127;BMP180;54931;52.098;21.006;2023-11-19T12:33:10;99843.00;;;0.30
68127;BMP180;54931;52.098;21.006;2023-11-19T12:35:46;99845.00;;;0.30
68127;BMP180;54931;52.098;21.006;2023-11-19T12:38:24;99845.40;;;0.30
68127;BMP180;54931;52.098;21.006;2023-11-19T12:41:09;99838.60;;;0.30
68127;BMP180;54931;52.098;21.006;2023-11-19T12:43:45;99833.60;;;0.22
68127;BMP180;54931;52.098;21.006;2023-11-19T12:46:23;99830.80;;;0.20
68127;BMP180;54931;52.098;21.006;2023-11-19T12:48:51;99827.40;;;0.20
68127;BMP180;54931;52.098;21.006;2023-11-19T12:51:19;99823.60;;;0.20
68127;BMP180;54931;52.098;21.006;2023-11-19T12:53:56;99821.20;;;0.20
68127;BMP180;54931;52.098;21.006;2023-11-19T12:56:25;99822.20;;;0.20
68127;BMP180;54931;52.098;21.006;2023-11-19T12:58:53;99830.80;;;0.10
68127;BMP180;54931;52.098;21.006;2023-11-19T13:01:21;99828.60;;;0.12
68127;BMP180;54931;52.098;21.006;2023-11-19T13:03:49;99827.00;;;0.18
68127;BMP180;54931;52.098;21.006;2023-11-19T13:06:19;99826.80;;;0.16
68127;BMP180;54931;52.098;21.006;2023-11-19T13:08:50;99824.20;;;0.10
68127;BMP180;54931;52.098;21.006;2023-11-19T13:11:35;99822.00;;;0.10
68127;BMP180;54931;52.098;21.006;2023-11-19T13:14:04;99810.60;;;0.16
68127;BMP180;54931;52.098;21.006;2023-11-19T13:16:33;99800.40;;;0.20
68127;BMP180;54931;52.098;21.006;2023-11-19T13:19:00;99792.60;;;0.20
68127;BMP180;54931;52.098;21.006;2023-11-19T13:21:29;99790.20;;;0.20
68127;BMP180;54931;52.098;21.006;2023-11-19T13:23:59;99777.00;;;0.18
68127;BMP180;54931;52.098;21.006;2023-11-19T13:26:28;99769.40;;;0.20
68127;BMP180;54931;52.098;21.006;2023-11-19T13:28:55;99765.40;;;0.10
68127;BMP180;54931;52.098;21.006;2023-11-19T13:31:23;99762.20;;;0.10
68127;BMP180;54931;52.098;21.006;2023-11-19T13:33:51;99761.40;;;0.10
68127;BMP180;54931;52.098;21.006;2023-11-19T13:36:19;99764.60;;;0.10
68127;BMP180;54931;52.098;21.006;2023-11-19T13:38:47;99758.00;;;0.10
68127;BMP180;54931;52.098;21.006;2023-11-19T13:41:15;99754.80;;;0.10
68127;BMP180;54931;52.098;21.006;2023-11-19T13:43:43;99746.00;;;0.10
68127;BMP180;54931;52.098;21.006;2023-11-19T13:46:11;99738.60;;;0.10
68127;BMP180;54931;52.098;21.006;2023-11-19T13:48:39;99731.80;;;0.10
68127;BMP180;54931;52.098;21.006;2023-11-19T13:51:07;99725.60;;;0.10
68127;BMP180;54931;52.098;21.006;2023-11-19T13:53:38;99719.20;;;0.08
68127;BMP180;54931;52.098;21.006;2023-11-19T13:56:07;99720.00;;;0.06
68127;BMP180;54931;52.098;21.006;2023-11-19T13:58:34;99713.20;;;0.00
68127;BMP180;54931;52.098;21.006;2023-11-19T14:01:03;99717.40;;;0.04
68127;BMP180;54931;52.098;21.006;2023-11-19T14:03:31;99713.40;;;0.02
68127;BMP180;54931;52.098;21.006;2023-11-19T14:05:58;99715.20;;;0.02
68127;BMP180;54931;52.098;21.006;2023-11-19T14:08:26;99709.20;;;0.04
68127;BMP180;54931;52.098;21.006;2023-11-19T14:10:55;99707.80;;;0.00
68127;BMP180;54931;52.098;21.006;2023-11-19T14:13:24;99702.40;;;0.00